createdAt,value
2018-06-27T00:03:48.658Z,61.32
2018-06-27T00:08:43.171Z,62.15
2018-06-27T00:13:37.773Z,62.69
2018-06-27T00:18:32.387Z,62.50
2018-06-27T00:23:26.898Z,63.28
2018-06-27T00:28:21.482Z,63.63
2018-06-27T00:33:16.076Z,63.22
2018-06-27T00:38:15.793Z,62.99
2018-06-27T00:43:10.358Z,63.61
2018-06-27T00:48:05.065Z,63.28
2018-06-27T00:52:59.624Z,63.19
2018-06-27T00:57:54.165Z,63.37
2018-06-27T01:02:48.691Z,63.30
2018-06-27T01:07:43.227Z,63.61
2018-06-27T01:12:37.761Z,63.60
2018-06-27T01:17:32.330Z,64.93
2018-06-27T01:22:26.888Z,65.10
2018-06-27T01:27:21.449Z,64.50
2018-06-27T01:32:15.992Z,65.42
2018-06-27T01:37:10.610Z,65.22
2018-06-27T01:42:05.137Z,65.43
2018-06-27T01:46:59.728Z,65.81
2018-06-27T01:51:54.281Z,66.13
2018-06-27T01:56:48.852Z,66.70
2018-06-27T02:01:43.431Z,67.45
2018-06-27T02:06:37.960Z,66.49
2018-06-27T02:11:32.526Z,66.61
2018-06-27T02:16:27.067Z,66.29
2018-06-27T02:21:23.015Z,65.74
2018-06-27T02:26:17.584Z,66.23
2018-06-27T02:31:11.845Z,65.74
2018-06-27T02:36:06.538Z,65.69
2018-06-27T02:41:01.102Z,66.11
2018-06-27T02:45:55.328Z,65.86
2018-06-27T02:50:49.854Z,66.84
2018-06-27T02:55:44.538Z,66.96
2018-06-27T03:00:39.102Z,67.08
2018-06-27T03:05:33.684Z,67.58
2018-06-27T03:10:28.252Z,67.55
2018-06-27T03:15:22.859Z,68.08
2018-06-27T03:20:17.438Z,68.33
2018-06-27T03:25:11.968Z,68.22
2018-06-27T03:30:07.066Z,67.57
2018-06-27T03:35:01.618Z,67.15
2018-06-27T03:39:56.132Z,67.78
2018-06-27T03:44:50.701Z,67.99
2018-06-27T03:49:45.025Z,68.66
2018-06-27T03:54:39.588Z,68.15
2018-06-27T04:01:03.564Z,64.17
2018-06-27T04:05:58.117Z,61.69
2018-06-27T04:10:52.605Z,61.22
2018-06-27T04:15:47.191Z,59.59
2018-06-27T04:20:41.729Z,57.27
2018-06-27T04:25:36.403Z,53.22
2018-06-27T04:30:30.947Z,48.70
2018-06-27T04:35:25.215Z,46.12
2018-06-27T04:40:19.720Z,43.63
2018-06-27T04:45:14.251Z,43.48
2018-06-27T04:50:08.829Z,40.10
2018-06-27T04:55:03.382Z,38.37
2018-06-27T04:59:57.551Z,37.63
2018-06-27T05:04:52.221Z,38.27
2018-06-27T05:09:46.783Z,39.00
2018-06-27T05:14:41.344Z,38.25
2018-06-27T05:19:43.069Z,37.66
2018-06-27T05:24:37.701Z,38.79
2018-06-27T05:29:32.364Z,39.52
2018-06-27T05:34:26.863Z,38.76
2018-06-27T05:39:21.368Z,39.45
2018-06-27T05:44:15.942Z,40.35
2018-06-27T05:49:10.628Z,41.44
2018-06-27T05:54:05.318Z,41.79
2018-06-27T05:58:59.834Z,41.55
2018-06-27T06:03:54.360Z,44.95
2018-06-27T06:08:48.960Z,45.29
2018-06-27T06:13:43.278Z,43.88
2018-06-27T06:18:40.112Z,44.02
2018-06-27T06:23:34.821Z,44.87
2018-06-27T06:28:30.573Z,47.77
2018-06-27T06:33:25.137Z,48.38
2018-06-27T06:38:19.642Z,49.21
2018-06-27T06:43:15.575Z,48.23
2018-06-27T06:48:25.381Z,50.04
2018-06-27T06:53:20.045Z,48.43
2018-06-27T06:58:14.649Z,50.23
2018-06-27T07:03:09.420Z,51.06
2018-06-27T07:08:11.584Z,51.70
2018-06-27T07:13:07.569Z,51.24
2018-06-27T07:18:06.783Z,49.84
2018-06-27T07:23:01.807Z,50.24
2018-06-27T07:27:56.550Z,48.20
2018-06-27T07:32:51.060Z,49.11
2018-06-27T07:37:45.630Z,46.40
2018-06-27T07:42:40.315Z,46.36
2018-06-27T07:47:35.429Z,45.22
2018-06-27T07:52:30.125Z,44.97
2018-06-27T07:57:25.034Z,46.48
2018-06-27T08:02:19.727Z,45.99
2018-06-27T08:07:14.421Z,45.94
2018-06-27T08:12:08.935Z,44.85
2018-06-27T08:17:03.979Z,45.64
2018-06-27T08:21:58.562Z,45.39
2018-06-27T08:26:53.225Z,44.85
2018-06-27T08:31:58.903Z,43.41
2018-06-27T08:37:03.049Z,42.95
2018-06-27T08:42:01.852Z,42.57
2018-06-27T08:46:56.674Z,42.12
2018-06-27T08:51:52.830Z,42.68
2018-06-27T08:56:47.450Z,43.02
2018-06-27T09:01:51.686Z,43.32
2018-06-27T09:06:46.877Z,42.05
2018-06-27T09:11:42.322Z,41.25
2018-06-27T09:16:37.269Z,41.63
2018-06-27T09:21:32.241Z,41.53
2018-06-27T09:26:26.882Z,40.75
2018-06-27T09:31:21.594Z,39.34
2018-06-27T09:36:16.157Z,39.44
2018-06-27T09:41:10.873Z,37.14
2018-06-27T09:46:06.139Z,37.34
2018-06-27T09:51:00.693Z,37.50
2018-06-27T09:55:55.261Z,37.29
2018-06-27T10:00:50.177Z,36.37
2018-06-27T10:05:44.628Z,36.77
2018-06-27T10:10:39.238Z,35.79
2018-06-27T10:15:33.938Z,36.78
2018-06-27T10:20:28.255Z,35.78
2018-06-27T10:25:22.853Z,36.25
2018-06-27T10:30:17.642Z,34.27
2018-06-27T10:35:12.609Z,34.95
2018-06-27T10:40:07.209Z,35.00
2018-06-27T10:45:01.927Z,34.31
2018-06-27T10:49:56.662Z,34.06
2018-06-27T10:54:52.143Z,32.95
2018-06-27T10:59:46.910Z,34.53
2018-06-27T11:04:41.997Z,34.72
2018-06-27T11:09:36.718Z,34.89
2018-06-27T11:14:41.427Z,34.90
2018-06-27T11:19:36.971Z,34.73
2018-06-27T11:24:31.716Z,34.62
2018-06-27T11:29:26.613Z,33.95
2018-06-27T11:34:21.728Z,33.83
2018-06-27T11:39:17.927Z,31.33
2018-06-27T11:44:12.930Z,32.31
2018-06-27T11:49:07.763Z,31.88
2018-06-27T11:54:02.625Z,32.85
2018-06-27T11:58:57.333Z,32.04
2018-06-27T12:03:52.144Z,31.65
2018-06-27T12:08:46.963Z,32.51
2018-06-27T12:13:41.703Z,33.02
2018-06-27T12:18:36.313Z,32.94
2018-06-27T12:23:31.533Z,32.27
2018-06-27T12:28:26.108Z,33.17
2018-06-27T12:33:21.229Z,32.57
2018-06-27T12:38:15.866Z,32.92
2018-06-27T12:43:10.678Z,32.72
2018-06-27T12:48:05.618Z,33.21
2018-06-27T12:53:00.379Z,32.89
2018-06-27T12:57:55.151Z,32.09
2018-06-27T13:02:49.832Z,31.00
2018-06-27T13:07:44.452Z,30.64
2018-06-27T13:12:39.533Z,31.06
2018-06-27T13:17:34.153Z,31.01
2018-06-27T13:22:28.661Z,31.88
2018-06-27T13:27:23.117Z,32.08
2018-06-27T13:32:17.575Z,32.74
2018-06-27T13:37:13.007Z,34.94
2018-06-27T13:42:08.037Z,36.14
2018-06-27T13:47:02.567Z,36.61
2018-06-27T13:51:57.262Z,36.00
2018-06-27T13:56:51.881Z,36.73
2018-06-27T14:01:46.509Z,37.49
2018-06-27T14:06:41.126Z,39.54
2018-06-27T14:11:35.711Z,40.29
2018-06-27T14:16:30.351Z,39.81
2018-06-27T14:21:24.882Z,39.94
2018-06-27T14:26:19.523Z,36.79
2018-06-27T14:31:14.122Z,36.82
2018-06-27T14:36:08.721Z,37.23
2018-06-27T14:42:33.710Z,37.27
2018-06-27T14:47:28.330Z,38.18
2018-06-27T14:52:23.045Z,38.22
2018-06-27T14:57:18.001Z,37.99
2018-06-27T15:02:12.808Z,38.81
2018-06-27T15:07:07.376Z,38.11
2018-06-27T15:12:02.061Z,38.37
2018-06-27T15:16:56.685Z,38.23
2018-06-27T15:21:51.337Z,37.41
2018-06-27T15:26:46.020Z,37.49
2018-06-27T15:31:40.781Z,38.92
2018-06-27T15:36:35.297Z,38.30
2018-06-27T15:41:29.915Z,37.51
2018-06-27T15:46:24.638Z,38.12
2018-06-27T15:51:19.217Z,36.40
2018-06-27T15:56:13.784Z,36.76
2018-06-27T16:01:08.247Z,37.06
2018-06-27T16:06:02.845Z,36.75
2018-06-27T16:10:57.652Z,35.48
2018-06-27T16:15:52.282Z,33.98
2018-06-27T16:20:46.885Z,35.31
2018-06-27T16:25:41.532Z,33.96
2018-06-27T16:30:36.118Z,34.20
2018-06-27T16:35:30.748Z,34.34
2018-06-27T16:40:25.255Z,33.25
2018-06-27T16:45:19.929Z,32.35
2018-06-27T16:50:14.538Z,33.53
2018-06-27T16:55:09.192Z,32.77
2018-06-27T17:00:05.164Z,31.17
2018-06-27T17:04:59.741Z,31.35
2018-06-27T17:09:54.285Z,31.61
2018-06-27T17:14:48.869Z,32.36
2018-06-27T17:19:43.330Z,30.61
2018-06-27T17:24:38.037Z,30.01
2018-06-27T17:29:32.592Z,29.17
2018-06-27T17:34:27.197Z,30.29
2018-06-27T17:39:22.092Z,30.15
2018-06-27T17:44:16.295Z,30.48
2018-06-27T17:49:10.853Z,29.92
2018-06-27T17:54:05.938Z,30.66
2018-06-27T17:59:00.249Z,30.75
2018-06-27T18:03:54.832Z,29.65
2018-06-27T18:08:49.429Z,30.11
2018-06-27T18:13:44.030Z,29.81
2018-06-27T18:18:38.696Z,30.65
2018-06-27T18:23:33.317Z,30.65
2018-06-27T18:28:27.812Z,33.48
2018-06-27T18:33:22.433Z,35.58
2018-06-27T18:38:18.162Z,35.82
2018-06-27T18:43:12.680Z,36.69
2018-06-27T18:48:07.265Z,38.03
2018-06-27T18:53:02.036Z,35.96
2018-06-27T18:57:56.655Z,36.50
2018-06-27T19:02:51.201Z,35.55
2018-06-27T19:07:45.807Z,35.57
2018-06-27T19:12:40.518Z,36.10
2018-06-27T19:17:35.069Z,37.16
2018-06-27T19:22:29.645Z,39.38
2018-06-27T19:27:25.011Z,40.77
2018-06-27T19:32:19.618Z,40.35
2018-06-27T19:37:14.165Z,40.15
2018-06-27T19:42:08.775Z,40.35
2018-06-27T19:47:03.365Z,40.33
2018-06-27T19:51:57.852Z,40.46
2018-06-27T19:56:52.382Z,39.61
2018-06-27T20:01:46.901Z,39.97
2018-06-27T20:06:41.557Z,40.28
2018-06-27T20:11:35.896Z,40.38
2018-06-27T20:16:30.529Z,40.29
2018-06-27T20:21:25.131Z,40.48
2018-06-27T20:26:19.722Z,40.88
2018-06-27T20:31:14.317Z,41.57
2018-06-27T20:36:08.842Z,41.39
2018-06-27T20:41:03.505Z,41.65
2018-06-27T20:45:58.125Z,42.21
2018-06-27T20:50:52.744Z,42.20
2018-06-27T20:55:47.012Z,42.63
2018-06-27T21:00:41.598Z,42.88
2018-06-27T21:05:36.155Z,42.83
2018-06-27T21:10:30.658Z,43.18
2018-06-27T21:15:25.293Z,42.83
2018-06-27T21:20:19.894Z,43.26
2018-06-27T21:25:14.428Z,44.09
2018-06-27T21:30:09.714Z,43.77
2018-06-27T21:35:04.324Z,43.81
2018-06-27T21:39:59.558Z,44.02
2018-06-27T21:44:54.181Z,43.63
2018-06-27T21:49:48.756Z,44.87
2018-06-27T21:54:43.422Z,45.68
2018-06-27T21:59:37.953Z,46.26
2018-06-27T22:04:32.501Z,46.50
2018-06-27T22:09:27.094Z,46.03
2018-06-27T22:14:21.641Z,47.07
2018-06-27T22:19:16.128Z,46.22
2018-06-27T22:24:10.599Z,47.67
2018-06-27T22:29:05.109Z,47.70
2018-06-27T22:33:59.622Z,48.12
2018-06-27T22:38:54.145Z,48.84
2018-06-27T22:43:48.620Z,49.40
2018-06-27T22:48:43.156Z,48.75
2018-06-27T22:53:37.612Z,48.39
2018-06-27T22:58:32.135Z,48.62
2018-06-27T23:03:26.619Z,48.27
2018-06-27T23:08:21.073Z,48.73
2018-06-27T23:13:15.568Z,49.61
2018-06-27T23:18:10.171Z,49.77
2018-06-27T23:23:04.672Z,49.25
2018-06-27T23:27:59.107Z,50.10
2018-06-27T23:32:53.599Z,49.90
2018-06-27T23:37:48.074Z,50.73
2018-06-27T23:42:42.529Z,50.04
2018-06-27T23:47:36.977Z,49.48
2018-06-27T23:52:31.551Z,50.03
2018-06-27T23:57:26.090Z,49.04
